Time;durP1;ratioP1;P1;durP2;ratioP2;P2;SDS_P1;SDS_P2;PMS_P1;PMS_P2;Temp;Humidity;BMP_temperature;BMP_pressure;BME280_temperature;BME280_humidity;BME280_pressure;Samples;Min_cycle;Max_cycle;Signal;HPM_P1;HPM_P2
2022/08/02 00:01:08;;;;;;;0.08;0.08;;;23.30;60.10;;;;;;4192927;28;20095;-66
2022/08/02 00:03:31;;;;;;;0.00;0.00;;;23.30;60.20;;;;;;4194074;28;20502;-66
2022/08/02 00:05:54;;;;;;;0.88;0.45;;;23.30;60.20;;;;;;4193511;28;20078;-67
2022/08/02 00:08:16;;;;;;;0.00;0.00;;;23.30;60.30;;;;;;4177336;28;20434;-67
2022/08/02 00:10:38;;;;;;;0.00;0.00;;;23.30;60.30;;;;;;4176961;28;20090;-66
2022/08/02 00:13:00;;;;;;;0.00;0.00;;;23.30;60.30;;;;;;4191515;28;20444;-66
2022/08/02 00:15:22;;;;;;;0.10;0.10;;;23.30;60.30;;;;;;4178156;28;20064;-66
2022/08/02 00:17:44;;;;;;;0.00;0.00;;;23.20;60.30;;;;;;4177603;28;20115;-66
2022/08/02 00:20:10;;;;;;;0.00;0.00;;;23.20;60.40;;;;;;4179287;28;20458;-66
2022/08/02 00:22:32;;;;;;;0.00;0.00;;;23.20;60.40;;;;;;4178616;28;20060;-66
2022/08/02 00:24:54;;;;;;;0.00;0.00;;;23.20;60.40;;;;;;4177349;28;20044;-67
2022/08/02 00:27:16;;;;;;;0.10;0.10;;;23.20;60.50;;;;;;4191669;28;20047;-67
2022/08/02 00:29:38;;;;;;;0.00;0.00;;;23.20;60.40;;;;;;4193439;28;20087;-67
2022/08/02 00:32:04;;;;;;;0.00;0.00;;;23.20;60.60;;;;;;4192012;28;20044;-67
2022/08/02 00:34:26;;;;;;;0.00;0.00;;;23.20;60.60;;;;;;4177036;28;20473;-66
2022/08/02 00:36:54;;;;;;;0.00;0.00;;;23.20;60.60;;;;;;4177073;28;20055;-67
2022/08/02 00:39:16;;;;;;;0.00;0.00;;;23.20;60.60;;;;;;4175166;28;20385;-67
2022/08/02 00:41:56;;;;;;;0.00;0.00;;;23.20;60.60;;;;;;4177046;28;20055;-67
2022/08/02 00:44:19;;;;;;;0.00;0.00;;;23.20;60.60;;;;;;4176318;28;20064;-67
2022/08/02 00:46:42;;;;;;;0.00;0.00;;;23.20;60.70;;;;;;4176685;28;20139;-66
2022/08/02 00:49:04;;;;;;;0.00;0.00;;;23.20;60.70;;;;;;4174797;28;20047;-66
2022/08/02 00:51:26;;;;;;;0.00;0.00;;;23.10;60.60;;;;;;4176450;28;20106;-67
2022/08/02 00:53:49;;;;;;;0.00;0.00;;;23.10;60.70;;;;;;4187359;28;20139;-67
2022/08/02 00:56:11;;;;;;;1.38;0.47;;;23.10;60.70;;;;;;4191609;28;20484;-67
2022/08/02 00:58:34;;;;;;;0.22;0.22;;;23.10;60.70;;;;;;4176386;28;20110;-67
2022/08/02 01:00:59;;;;;;;0.25;0.25;;;23.10;60.70;;;;;;4193008;28;20076;-67
2022/08/02 01:03:21;;;;;;;0.00;0.00;;;23.10;60.70;;;;;;4192720;28;20051;-66
2022/08/02 01:05:44;;;;;;;0.17;0.17;;;23.10;60.80;;;;;;4191820;28;20113;-66
2022/08/02 01:08:22;;;;;;;0.00;0.00;;;23.10;61.80;;;;;;4191368;28;20098;-66
2022/08/02 01:10:51;;;;;;;0.15;0.15;;;23.10;60.90;;;;;;4192943;28;20052;-66
2022/08/02 01:13:13;;;;;;;0.00;0.00;;;23.10;60.90;;;;;;4192784;28;20544;-66
2022/08/02 01:15:40;;;;;;;0.00;0.00;;;23.00;60.90;;;;;;4192943;28;20502;-66
2022/08/02 01:18:08;;;;;;;0.00;0.00;;;23.00;60.90;;;;;;4192950;28;20047;-66
2022/08/02 01:20:59;;;;;;;0.00;0.00;;;23.00;60.90;;;;;;4192589;28;20060;-66
2022/08/02 01:23:43;;;;;;;0.00;0.00;;;23.00;61.00;;;;;;4192570;28;20166;-66
2022/08/02 01:26:26;;;;;;;0.00;0.00;;;23.00;61.00;;;;;;4191800;28;20401;-66
2022/08/02 01:28:54;;;;;;;0.00;0.00;;;23.00;61.10;;;;;;4192177;28;20118;-66
2022/08/02 01:31:20;;;;;;;0.00;0.00;;;23.00;61.10;;;;;;4192795;28;20470;-66
2022/08/02 01:33:47;;;;;;;0.00;0.00;;;23.00;61.10;;;;;;4192501;28;20426;-66
2022/08/02 01:36:12;;;;;;;0.00;0.00;;;23.00;61.20;;;;;;4192906;28;20068;-66
2022/08/02 01:38:38;;;;;;;0.17;0.17;;;22.90;61.10;;;;;;4191938;28;20045;-66
2022/08/02 01:41:03;;;;;;;0.00;0.00;;;23.00;61.20;;;;;;4192767;28;20037;-66
2022/08/02 01:43:28;;;;;;;0.00;0.00;;;22.90;61.20;;;;;;4191790;28;20052;-66
2022/08/02 01:45:52;;;;;;;0.00;0.00;;;22.90;61.20;;;;;;4192657;28;20113;-66
2022/08/02 01:48:16;;;;;;;0.00;0.00;;;22.90;62.10;;;;;;4192300;28;20124;-66
2022/08/02 01:50:39;;;;;;;0.00;0.00;;;22.90;61.20;;;;;;4176780;28;20079;-66
2022/08/02 01:53:05;;;;;;;0.00;0.00;;;22.90;61.20;;;;;;4191071;28;20147;-66
2022/08/02 01:55:31;;;;;;;0.47;0.47;;;22.90;61.30;;;;;;4175779;28;20806;-66
2022/08/02 01:57:58;;;;;;;0.10;0.10;;;22.90;61.30;;;;;;4176832;28;20059;-66
2022/08/02 02:00:23;;;;;;;0.00;0.00;;;22.80;61.20;;;;;;4174789;28;20472;-66
2022/08/02 02:02:49;;;;;;;0.00;0.00;;;22.90;61.30;;;;;;4192115;28;20403;-66
2022/08/02 02:05:14;;;;;;;1.55;0.88;;;22.90;61.30;;;;;;4190297;28;20047;-66
2022/08/02 02:07:37;;;;;;;0.00;0.00;;;22.80;61.20;;;;;;4192351;28;20102;-66
2022/08/02 02:10:02;;;;;;;0.00;0.00;;;22.80;61.30;;;;;;4192150;28;20493;-66
2022/08/02 02:12:25;;;;;;;0.00;0.00;;;22.80;61.30;;;;;;4174170;28;20118;-66
2022/08/02 02:14:49;;;;;;;0.00;0.00;;;22.80;61.30;;;;;;4158929;28;20508;-66
2022/08/02 02:17:15;;;;;;;0.20;0.20;;;22.80;61.30;;;;;;4175594;28;20047;-65
2022/08/02 02:20:01;;;;;;;0.00;0.00;;;22.80;61.40;;;;;;4175062;28;20051;-66
2022/08/02 02:22:23;;;;;;;0.00;0.00;;;22.80;61.40;;;;;;4170759;28;20049;-66
2022/08/02 02:24:45;;;;;;;0.00;0.00;;;22.70;61.30;;;;;;4168835;28;20489;-66
2022/08/02 02:27:09;;;;;;;0.00;0.00;;;22.70;61.40;;;;;;4174960;28;20395;-66
2022/08/02 02:29:34;;;;;;;0.00;0.00;;;22.80;61.50;;;;;;4175573;28;20565;-66
2022/08/02 02:31:58;;;;;;;0.15;0.15;;;22.80;61.50;;;;;;4188326;28;20498;-66
2022/08/02 02:34:27;;;;;;;0.22;0.22;;;22.70;61.40;;;;;;4191742;28;20047;-66
2022/08/02 02:36:51;;;;;;;0.00;0.00;;;22.70;61.40;;;;;;4191976;28;20101;-66
2022/08/02 02:39:15;;;;;;;0.00;0.00;;;22.70;61.50;;;;;;4191040;28;20052;-67
2022/08/02 02:41:39;;;;;;;0.00;0.00;;;22.70;61.40;;;;;;4191759;28;20052;-66
2022/08/02 02:44:04;;;;;;;0.00;0.00;;;22.70;61.50;;;;;;4191658;28;20114;-66
2022/08/02 02:46:27;;;;;;;0.03;0.03;;;22.70;61.50;;;;;;4190386;28;20122;-66
2022/08/02 02:48:52;;;;;;;0.88;0.88;;;22.70;61.60;;;;;;4190955;28;20110;-66
2022/08/02 02:51:14;;;;;;;0.00;0.00;;;22.70;61.60;;;;;;4191841;28;20133;-66
2022/08/02 02:53:38;;;;;;;0.00;0.00;;;22.70;61.70;;;;;;4191620;28;20062;-66
2022/08/02 02:56:20;;;;;;;0.20;0.20;;;22.60;61.60;;;;;;4191417;28;20161;-66
2022/08/02 02:58:43;;;;;;;0.00;0.00;;;22.60;61.60;;;;;;4191296;28;20415;-66
2022/08/02 03:04:07;;;;;;;0.00;0.00;;;22.60;61.70;;;;;;4190526;28;20052;-67
2022/08/02 03:06:30;;;;;;;0.00;0.00;;;22.60;61.70;;;;;;4191838;28;20055;-67
2022/08/02 03:08:53;;;;;;;0.00;0.00;;;22.60;61.70;;;;;;4191107;28;20067;-67
2022/08/02 03:11:16;;;;;;;0.05;0.05;;;22.60;61.80;;;;;;4191320;28;20045;-67
2022/08/02 03:13:40;;;;;;;0.00;0.00;;;22.60;61.80;;;;;;4191597;28;20372;-67
2022/08/02 03:16:02;;;;;;;0.00;0.00;;;22.50;61.70;;;;;;4191685;28;20044;-66
2022/08/02 03:18:32;;;;;;;0.00;0.00;;;22.60;61.80;;;;;;4189939;28;20087;-66
2022/08/02 03:20:58;;;;;;;0.38;0.38;;;22.60;61.90;;;;;;4175193;28;22227;-66
2022/08/02 03:23:19;;;;;;;0.00;0.00;;;22.60;61.90;;;;;;4174967;28;20149;-66
2022/08/02 03:25:43;;;;;;;0.10;0.10;;;22.50;61.80;;;;;;4174964;28;20057;-66
2022/08/02 03:28:05;;;;;;;0.00;0.00;;;22.50;61.90;;;;;;4174976;28;20052;-66
2022/08/02 03:30:27;;;;;;;0.10;0.10;;;22.50;61.80;;;;;;4189063;28;20055;-65
2022/08/02 03:32:49;;;;;;;0.10;0.10;;;22.50;61.90;;;;;;4194261;28;20123;-65
2022/08/02 03:35:14;;;;;;;0.00;0.00;;;22.50;61.90;;;;;;4194408;28;20044;-66
2022/08/02 03:37:41;;;;;;;0.00;0.00;;;22.50;61.90;;;;;;4194423;28;20050;-66
2022/08/02 03:40:03;;;;;;;0.00;0.00;;;22.50;61.90;;;;;;4194154;28;20140;-66
2022/08/02 03:42:28;;;;;;;0.00;0.00;;;22.50;61.90;;;;;;4194031;28;20086;-66
2022/08/02 03:44:53;;;;;;;0.00;0.00;;;22.50;62.00;;;;;;4194226;28;20041;-66
2022/08/02 03:47:15;;;;;;;0.00;0.00;;;22.50;62.00;;;;;;4193871;28;20389;-66
2022/08/02 03:49:38;;;;;;;0.00;0.00;;;22.50;62.00;;;;;;4193685;28;20059;-66
2022/08/02 03:52:01;;;;;;;0.40;0.40;;;22.40;61.90;;;;;;4194138;28;20051;-66
2022/08/02 03:54:23;;;;;;;0.08;0.08;;;22.40;61.90;;;;;;4194350;28;20556;-65
2022/08/02 03:56:53;;;;;;;0.00;0.00;;;22.40;62.00;;;;;;4194058;28;20075;-66
2022/08/02 03:59:17;;;;;;;0.00;0.00;;;22.40;62.00;;;;;;4177564;28;20062;-66
2022/08/02 04:01:40;;;;;;;0.00;0.00;;;22.40;62.00;;;;;;4187371;28;20051;-66
2022/08/02 04:04:02;;;;;;;0.00;0.00;;;22.40;62.00;;;;;;4194111;28;20052;-66
2022/08/02 04:06:24;;;;;;;0.20;0.20;;;22.40;62.00;;;;;;4193740;28;20199;-66
2022/08/02 04:08:47;;;;;;;0.00;0.00;;;22.40;62.10;;;;;;4178525;28;20071;-66
2022/08/02 04:13:49;;;;;;;0.08;0.08;;;22.40;62.10;;;;;;4192242;28;20067;-66
2022/08/02 04:16:16;;;;;;;0.10;0.10;;;22.40;62.10;;;;;;4176411;28;20059;-67
2022/08/02 04:18:41;;;;;;;0.00;0.00;;;22.40;62.10;;;;;;4177544;28;20130;-66
2022/08/02 04:21:06;;;;;;;0.10;0.10;;;22.40;62.20;;;;;;4177028;28;20496;-66
2022/08/02 04:23:31;;;;;;;0.00;0.00;;;22.40;62.20;;;;;;4176952;28;20037;-66
2022/08/02 04:25:54;;;;;;;0.00;0.00;;;22.40;62.20;;;;;;4176691;28;20464;-66
2022/08/02 04:28:17;;;;;;;0.50;0.40;;;22.30;62.10;;;;;;4191631;28;20072;-66
2022/08/02 04:30:41;;;;;;;0.00;0.00;;;22.30;62.20;;;;;;4160605;28;20063;-66
2022/08/02 04:33:05;;;;;;;0.20;0.20;;;22.30;62.20;;;;;;4175905;28;20071;-66
2022/08/02 04:35:27;;;;;;;0.00;0.00;;;22.30;63.10;;;;;;4176659;28;20048;-66
2022/08/02 04:37:50;;;;;;;0.00;0.00;;;22.40;62.20;;;;;;4181912;28;20075;-66
2022/08/02 04:40:27;;;;;;;0.10;0.10;;;22.40;62.20;;;;;;4192519;28;20106;-66
2022/08/02 04:42:49;;;;;;;0.00;0.00;;;22.30;62.10;;;;;;4193501;28;20137;-66
2022/08/02 04:45:12;;;;;;;0.57;0.30;;;22.30;62.10;;;;;;4193094;28;20182;-66
2022/08/02 04:47:38;;;;;;;0.00;0.00;;;22.40;62.10;;;;;;4191097;28;20051;-66
2022/08/02 04:50:21;;;;;;;0.00;0.00;;;22.40;62.10;;;;;;4193068;28;20083;-66
2022/08/02 04:52:43;;;;;;;0.00;0.00;;;22.30;62.10;;;;;;4193052;28;20484;-67
2022/08/02 04:55:07;;;;;;;0.00;0.00;;;22.40;62.20;;;;;;4193150;28;20118;-66
2022/08/02 05:00:12;;;;;;;0.00;0.00;;;22.30;62.10;;;;;;4192897;28;20094;-66
2022/08/02 05:02:34;;;;;;;0.00;0.00;;;22.40;62.10;;;;;;4193213;28;20051;-66
2022/08/02 05:04:56;;;;;;;0.00;0.00;;;22.40;62.20;;;;;;4193204;28;20044;-66
2022/08/02 05:07:20;;;;;;;0.00;0.00;;;22.40;62.10;;;;;;4191571;28;20063;-68
2022/08/02 05:09:42;;;;;;;0.00;0.00;;;22.40;62.00;;;;;;4184321;28;20083;-64
2022/08/02 05:12:04;;;;;;;0.45;0.45;;;22.40;61.90;;;;;;4193158;28;20051;-66
2022/08/02 05:14:26;;;;;;;0.00;0.00;;;22.50;62.30;;;;;;4192712;28;20458;-66
2022/08/02 05:16:48;;;;;;;0.00;0.00;;;22.50;62.40;;;;;;4192829;28;20059;-66
2022/08/02 05:19:10;;;;;;;0.00;0.00;;;22.50;62.40;;;;;;4176503;28;20040;-66
2022/08/02 05:21:32;;;;;;;0.00;0.00;;;22.40;62.10;;;;;;4176000;28;20047;-68
2022/08/02 05:23:56;;;;;;;0.00;0.00;;;22.40;62.10;;;;;;4176288;28;20102;-67
2022/08/02 05:26:18;;;;;;;0.00;0.00;;;22.40;62.20;;;;;;4187703;28;20054;-67
2022/08/02 05:28:40;;;;;;;1.48;1.20;;;22.40;62.20;;;;;;4192389;28;20059;-66
2022/08/02 05:31:01;;;;;;;0.08;0.08;;;22.50;62.10;;;;;;4176185;28;20041;-67
2022/08/02 05:33:23;;;;;;;0.00;0.00;;;22.50;62.00;;;;;;4175999;28;20082;-67
2022/08/02 05:35:45;;;;;;;0.80;0.80;;;22.40;61.90;;;;;;4190859;28;20051;-67
2022/08/02 05:38:08;;;;;;;0.10;0.10;;;22.50;61.90;;;;;;4175769;28;20435;-67
2022/08/02 05:40:32;;;;;;;0.00;0.00;;;22.50;61.90;;;;;;4192768;28;20059;-67
2022/08/02 05:42:54;;;;;;;0.30;0.30;;;22.50;61.80;;;;;;4192584;28;20400;-68
2022/08/02 05:45:17;;;;;;;0.32;0.32;;;22.50;61.80;;;;;;4191772;28;20086;-68
2022/08/02 05:47:39;;;;;;;0.00;0.00;;;22.50;61.70;;;;;;4192186;28;20056;-67
2022/08/02 05:50:01;;;;;;;0.00;0.00;;;22.50;61.70;;;;;;4176111;28;20040;-67
2022/08/02 05:52:25;;;;;;;0.00;0.00;;;22.50;61.70;;;;;;4192341;28;20548;-67
2022/08/02 05:54:52;;;;;;;0.00;0.00;;;22.50;61.70;;;;;;4186165;28;20107;-67
2022/08/02 05:57:26;;;;;;;0.00;0.00;;;22.50;61.70;;;;;;4173913;28;20136;-67
2022/08/02 06:00:06;;;;;;;0.00;0.00;;;22.50;61.70;;;;;;4177016;28;20151;-68
2022/08/02 06:02:53;;;;;;;0.00;0.00;;;22.50;61.70;;;;;;4190403;28;20745;-68
2022/08/02 06:05:18;;;;;;;0.20;0.20;;;22.50;61.80;;;;;;4183552;28;20601;-68
2022/08/02 06:07:42;;;;;;;0.47;0.47;;;22.50;61.80;;;;;;4191981;28;20063;-68
2022/08/02 06:10:06;;;;;;;0.38;0.38;;;22.40;61.80;;;;;;4181079;28;20054;-68
2022/08/02 06:12:31;;;;;;;0.65;0.32;;;22.50;61.80;;;;;;4191706;28;20058;-68
2022/08/02 06:14:56;;;;;;;0.00;0.00;;;22.40;61.80;;;;;;4192116;28;20079;-68
2022/08/02 06:17:19;;;;;;;0.00;0.00;;;22.50;61.80;;;;;;4191818;28;20181;-67
2022/08/02 06:19:42;;;;;;;0.40;0.40;;;22.40;61.80;;;;;;4192467;28;20056;-68
2022/08/02 06:22:15;;;;;;;0.00;0.00;;;22.40;61.80;;;;;;4192106;28;20400;-68
2022/08/02 06:24:56;;;;;;;0.15;0.15;;;22.40;61.70;;;;;;4177903;28;20190;-67
2022/08/02 06:27:18;;;;;;;0.00;0.00;;;22.40;61.70;;;;;;4172502;28;20162;-68
2022/08/02 06:29:45;;;;;;;0.00;0.00;;;22.40;61.70;;;;;;4188116;28;20055;-67
2022/08/02 06:32:08;;;;;;;0.00;0.00;;;22.40;61.70;;;;;;4188105;28;20102;-68
2022/08/02 06:34:30;;;;;;;0.75;0.75;;;22.40;61.70;;;;;;4189891;28;20063;-68
2022/08/02 06:37:01;;;;;;;0.30;0.30;;;22.40;61.60;;;;;;4188176;28;20586;-68
2022/08/02 06:39:31;;;;;;;0.00;0.00;;;22.40;61.80;;;;;;4189097;28;20167;-68
2022/08/02 06:41:58;;;;;;;0.00;0.00;;;22.40;61.90;;;;;;4189925;28;20737;-68
2022/08/02 06:44:31;;;;;;;0.00;0.00;;;22.50;61.90;;;;;;4186457;28;20294;-68
2022/08/02 06:47:15;;;;;;;17.05;1.45;;;22.50;61.80;;;;;;4189611;28;20103;-68
2022/08/02 06:49:37;;;;;;;0.00;0.00;;;22.50;62.70;;;;;;4188066;28;20144;-68
2022/08/02 06:52:14;;;;;;;0.10;0.10;;;22.50;61.70;;;;;;4188847;28;20063;-68
2022/08/02 06:54:41;;;;;;;0.00;0.00;;;22.50;61.70;;;;;;4189093;28;20037;-68
2022/08/02 06:57:03;;;;;;;0.00;0.00;;;22.50;61.80;;;;;;4175948;28;20138;-68
2022/08/02 06:59:25;;;;;;;0.10;0.10;;;22.50;61.70;;;;;;4171484;28;20071;-68
2022/08/02 07:01:48;;;;;;;0.00;0.00;;;22.60;61.70;;;;;;4172322;28;20065;-69
2022/08/02 07:04:11;;;;;;;3.83;1.30;;;22.60;61.70;;;;;;4188006;28;20048;-68
2022/08/02 07:06:35;;;;;;;0.43;0.43;;;22.60;61.70;;;;;;4190861;28;20432;-68
2022/08/02 07:08:57;;;;;;;0.00;0.00;;;22.70;61.60;;;;;;4191718;28;20071;-68
2022/08/02 07:11:39;;;;;;;0.00;0.00;;;22.70;61.50;;;;;;4177480;28;20041;-68
2022/08/02 07:14:02;;;;;;;0.15;0.15;;;22.70;61.30;;;;;;4192153;28;20548;-68
2022/08/02 07:16:24;;;;;;;0.00;0.00;;;22.80;61.10;;;;;;4192063;28;20105;-68
2022/08/02 07:18:46;;;;;;;0.00;0.00;;;22.90;60.90;;;;;;4191306;28;20573;-67
2022/08/02 07:21:09;;;;;;;0.00;0.00;;;22.90;60.60;;;;;;4188822;28;20115;-68
2022/08/02 07:23:31;;;;;;;0.00;0.00;;;22.90;60.40;;;;;;4191888;28;20396;-68
2022/08/02 07:25:53;;;;;;;0.00;0.00;;;23.00;60.30;;;;;;4191888;28;20049;-67
2022/08/02 07:28:24;;;;;;;;;;;23.00;60.00;;;;;;4192197;28;20072;-67
2022/08/02 07:30:46;;;;;;;2.30;0.30;;;23.00;59.90;;;;;;4188984;28;19974;-67
2022/08/02 07:33:09;;;;;;;0.00;0.00;;;23.00;59.80;;;;;;4191973;28;20403;-68
2022/08/02 07:35:31;;;;;;;0.00;0.00;;;23.00;59.80;;;;;;4192035;28;20059;-67
2022/08/02 07:37:54;;;;;;;0.00;0.00;;;23.00;59.80;;;;;;4191539;28;20053;-67
2022/08/02 07:40:20;;;;;;;0.00;0.00;;;23.10;59.80;;;;;;4191805;28;20078;-66
2022/08/02 07:42:42;;;;;;;0.00;0.00;;;23.10;59.90;;;;;;4192029;27;21177;-67
2022/08/02 07:45:05;;;;;;;0.00;0.00;;;23.10;59.90;;;;;;4190441;28;20071;-66
2022/08/02 07:47:27;;;;;;;0.00;0.00;;;23.10;59.90;;;;;;4191246;28;20113;-67
2022/08/02 07:49:49;;;;;;;0.00;0.00;;;23.20;59.90;;;;;;4192149;28;20056;-66
2022/08/02 07:52:12;;;;;;;0.00;0.00;;;23.20;59.90;;;;;;4190033;28;20056;-67
2022/08/02 07:54:36;;;;;;;0.00;0.00;;;23.20;59.80;;;;;;4191862;28;20067;-67
2022/08/02 07:56:58;;;;;;;0.00;0.00;;;23.20;59.80;;;;;;4189475;28;20128;-68
2022/08/02 07:59:21;;;;;;;0.22;0.22;;;23.20;59.70;;;;;;4191480;28;20419;-68
2022/08/02 08:01:43;;;;;;;0.00;0.00;;;23.30;59.70;;;;;;4191286;28;20114;-68
2022/08/02 08:04:06;;;;;;;0.10;0.10;;;23.20;59.50;;;;;;4191837;28;20056;-68
2022/08/02 08:06:28;;;;;;;0.00;0.00;;;23.30;59.40;;;;;;4174656;28;20500;-68
2022/08/02 08:08:50;;;;;;;0.28;0.28;;;23.30;59.30;;;;;;4191771;28;20137;-67
2022/08/02 08:11:13;;;;;;;0.00;0.00;;;23.30;59.10;;;;;;4191646;28;20063;-68
2022/08/02 08:13:36;;;;;;;0.08;0.08;;;23.30;58.90;;;;;;4189922;28;20555;-67
2022/08/02 08:15:58;;;;;;;0.00;0.00;;;23.40;58.80;;;;;;4190050;28;20054;-68
2022/08/02 08:18:20;;;;;;;0.20;0.20;;;23.40;59.40;;;;;;4191159;28;20048;-67
2022/08/02 08:20:43;;;;;;;0.00;0.00;;;23.40;58.60;;;;;;4191015;28;20064;-68
2022/08/02 08:23:04;;;;;;;0.00;0.00;;;23.40;58.50;;;;;;4189468;28;20047;-67
2022/08/02 08:25:27;;;;;;;0.00;0.00;;;23.50;58.40;;;;;;4188101;28;20223;-67
2022/08/02 08:27:51;;;;;;;1.88;1.70;;;23.40;58.30;;;;;;4190945;28;20056;-67
2022/08/02 08:30:14;;;;;;;0.32;0.32;;;23.50;59.00;;;;;;4181866;28;20530;-67
2022/08/02 08:32:36;;;;;;;0.00;0.00;;;23.50;58.20;;;;;;4189805;28;20041;-67
2022/08/02 08:34:58;;;;;;;0.00;0.00;;;23.50;58.10;;;;;;4188804;28;20057;-68
2022/08/02 08:37:20;;;;;;;0.00;0.00;;;23.50;58.00;;;;;;4190645;28;20131;-67
2022/08/02 08:39:42;;;;;;;0.10;0.10;;;23.50;57.90;;;;;;4189960;28;20072;-67
2022/08/02 08:42:15;;;;;;;0.00;0.00;;;23.60;58.00;;;;;;4189732;28;20133;-66
2022/08/02 08:44:40;;;;;;;0.00;0.00;;;23.60;57.60;;;;;;4173737;28;20048;-68
2022/08/02 08:47:04;;;;;;;0.20;0.20;;;23.60;57.50;;;;;;4190977;28;20044;-67
2022/08/02 08:49:31;;;;;;;0.55;0.50;;;23.60;57.40;;;;;;4191109;28;20064;-67
2022/08/02 08:51:56;;;;;;;0.00;0.00;;;23.60;57.30;;;;;;4190862;28;20545;-67
2022/08/02 08:54:23;;;;;;;0.00;0.00;;;23.60;57.10;;;;;;4189893;28;20102;-68
2022/08/02 08:56:46;;;;;;;0.10;0.10;;;23.60;56.90;;;;;;4191000;28;20052;-67
2022/08/02 08:59:08;;;;;;;0.00;0.00;;;23.60;56.80;;;;;;4190009;28;20098;-67
2022/08/02 09:01:32;;;;;;;0.00;0.00;;;23.70;56.80;;;;;;4190526;28;20044;-68
2022/08/02 09:04:10;;;;;;;0.00;0.00;;;23.70;56.60;;;;;;4189164;28;20048;-68
2022/08/02 09:06:33;;;;;;;0.00;0.00;;;23.70;56.70;;;;;;4190551;28;20113;-68
2022/08/02 09:08:55;;;;;;;0.30;0.22;;;23.80;56.60;;;;;;4190513;28;20040;-68
2022/08/02 09:11:19;;;;;;;0.00;0.00;;;23.70;56.40;;;;;;4188356;28;20053;-68
2022/08/02 09:13:50;;;;;;;0.00;0.00;;;23.80;56.40;;;;;;4189946;28;20040;-68
2022/08/02 09:16:12;;;;;;;0.20;0.20;;;23.80;56.30;;;;;;4188428;28;20400;-68
2022/08/02 09:18:39;;;;;;;0.00;0.00;;;23.80;56.00;;;;;;4188725;28;20507;-67
2022/08/02 09:21:02;;;;;;;0.00;0.00;;;23.80;55.50;;;;;;4190154;28;20613;-68
2022/08/02 09:23:26;;;;;;;0.00;0.00;;;23.80;55.10;;;;;;4189200;28;20052;-66
2022/08/02 09:25:59;;;;;;;0.00;0.00;;;23.80;55.30;;;;;;4190182;28;20064;-67
2022/08/02 09:28:28;;;;;;;0.00;0.00;;;23.90;55.40;;;;;;4187374;28;20072;-66
2022/08/02 09:30:50;;;;;;;0.00;0.00;;;23.90;55.50;;;;;;4189295;28;20166;-67
2022/08/02 09:33:12;;;;;;;0.00;0.00;;;23.90;55.30;;;;;;4189241;28;20079;-66
2022/08/02 09:35:38;;;;;;;0.00;0.00;;;23.90;55.30;;;;;;4189219;28;20044;-67
2022/08/02 09:38:20;;;;;;;0.00;0.00;;;24.00;55.20;;;;;;4189304;28;20052;-67
2022/08/02 09:40:43;;;;;;;0.00;0.00;;;24.00;55.10;;;;;;4189338;28;20135;-66
2022/08/02 09:43:05;;;;;;;0.00;0.00;;;24.00;54.90;;;;;;4188149;28;20048;-65
2022/08/02 09:45:31;;;;;;;0.03;0.03;;;24.10;54.70;;;;;;4188352;28;20052;-66
2022/08/02 09:47:54;;;;;;;0.10;0.10;;;24.10;54.60;;;;;;4190320;28;20048;-65
2022/08/02 09:50:16;;;;;;;0.00;0.00;;;24.10;54.60;;;;;;4189644;28;20407;-66
2022/08/02 09:52:43;;;;;;;0.00;0.00;;;24.10;54.60;;;;;;4189027;28;20071;-65
2022/08/02 09:55:06;;;;;;;0.00;0.00;;;24.20;54.50;;;;;;4188911;28;20136;-71
2022/08/02 09:57:29;;;;;;;0.00;0.00;;;24.20;54.50;;;;;;4189158;28;20147;-66
2022/08/02 09:59:53;;;;;;;0.65;0.65;;;24.20;54.40;;;;;;4187635;28;20465;-66
2022/08/02 10:02:15;;;;;;;0.13;0.13;;;24.20;54.40;;;;;;4189160;28;20525;-65
2022/08/02 10:04:38;;;;;;;0.08;0.08;;;24.20;54.30;;;;;;4188897;28;20411;-66
2022/08/02 10:07:13;;;;;;;0.00;0.00;;;24.20;54.30;;;;;;4189272;28;20719;-66
2022/08/02 10:09:37;;;;;;;0.00;0.00;;;24.20;54.30;;;;;;4189203;28;20458;-68
2022/08/02 10:12:05;;;;;;;0.05;0.05;;;24.30;54.40;;;;;;4188973;28;20046;-67
2022/08/02 10:14:28;;;;;;;0.10;0.10;;;24.30;54.50;;;;;;4188405;28;20059;-67
2022/08/02 10:16:53;;;;;;;0.00;0.00;;;24.30;54.50;;;;;;4189153;28;20045;-67
2022/08/02 10:19:16;;;;;;;0.00;0.00;;;24.30;54.50;;;;;;4172657;28;20056;-67
2022/08/02 10:21:45;;;;;;;0.00;0.00;;;24.30;54.50;;;;;;4189325;28;20446;-66
2022/08/02 10:24:10;;;;;;;0.00;0.00;;;24.30;54.60;;;;;;4187867;28;20487;-67
2022/08/02 10:26:35;;;;;;;0.00;0.00;;;24.30;54.60;;;;;;4188017;28;20585;-67
2022/08/02 10:28:57;;;;;;;0.00;0.00;;;24.30;54.70;;;;;;4188411;28;20159;-68
2022/08/02 10:31:25;;;;;;;0.00;0.00;;;24.30;54.70;;;;;;4188962;28;20156;-67
2022/08/02 10:33:51;;;;;;;0.00;0.00;;;24.30;54.80;;;;;;4189949;28;20054;-67
2022/08/02 10:36:14;;;;;;;0.20;0.20;;;24.40;54.80;;;;;;4188885;28;20125;-67
2022/08/02 10:38:37;;;;;;;0.00;0.00;;;24.40;54.90;;;;;;4189763;28;20456;-68
2022/08/02 10:40:59;;;;;;;0.00;0.00;;;24.40;54.90;;;;;;4188198;28;20154;-68
2022/08/02 10:43:49;;;;;;;1.85;1.10;;;24.40;54.90;;;;;;4188740;28;20052;-68
2022/08/02 10:46:32;;;;;;;0.00;0.00;;;24.50;55.00;;;;;;4181790;28;20048;-67
2022/08/02 10:49:02;;;;;;;0.00;0.00;;;24.50;55.20;;;;;;4171878;28;20095;-67
2022/08/02 10:52:04;;;;;;;0.00;0.00;;;24.50;55.20;;;;;;4187637;28;20070;-67
2022/08/02 10:54:28;;;;;;;0.00;0.00;;;24.50;55.30;;;;;;4163472;28;20049;-67
2022/08/02 10:56:52;;;;;;;0.00;0.00;;;24.60;55.80;;;;;;4171562;28;20123;-66
2022/08/02 10:59:27;;;;;;;0.00;0.00;;;24.60;55.50;;;;;;4160326;28;20144;-67
2022/08/02 11:01:49;;;;;;;0.00;0.00;;;24.60;55.50;;;;;;4188950;28;20055;-67
2022/08/02 11:04:11;;;;;;;0.20;0.20;;;24.60;55.60;;;;;;4189395;28;20454;-67
2022/08/02 11:06:34;;;;;;;0.00;0.00;;;24.60;55.50;;;;;;4188948;28;20135;-67
2022/08/02 11:09:26;;;;;;;0.00;0.00;;;24.60;55.60;;;;;;4188688;28;20140;-67
2022/08/02 11:12:01;;;;;;;0.00;0.00;;;24.70;55.90;;;;;;4188642;28;20040;-67
2022/08/02 11:14:25;;;;;;;0.70;0.70;;;24.70;56.10;;;;;;4188846;28;20516;-67
2022/08/02 11:17:09;;;;;;;0.00;0.00;;;24.70;56.30;;;;;;4188766;28;20056;-68
2022/08/02 11:19:32;;;;;;;0.00;0.00;;;24.80;56.50;;;;;;4188867;28;20535;-68
2022/08/02 11:22:01;;;;;;;0.00;0.00;;;24.80;56.60;;;;;;4188741;28;20052;-67
2022/08/02 11:24:28;;;;;;;0.00;0.00;;;24.80;56.50;;;;;;4189389;28;21535;-68
2022/08/02 11:26:50;;;;;;;0.70;0.70;;;24.80;56.50;;;;;;4186967;28;20241;-67
2022/08/02 11:29:12;;;;;;;0.00;0.00;;;24.90;56.60;;;;;;4188243;28;20044;-68
2022/08/02 11:31:43;;;;;;;0.00;0.00;;;24.90;56.70;;;;;;4188214;28;21106;-66
2022/08/02 11:34:05;;;;;;;0.00;0.00;;;24.90;56.90;;;;;;4188377;28;20051;-67
2022/08/02 11:36:30;;;;;;;0.38;0.38;;;24.90;57.00;;;;;;4189346;28;20049;-68
2022/08/02 11:39:09;;;;;;;0.00;0.00;;;24.90;57.80;;;;;;4187960;28;20524;-68
2022/08/02 11:41:31;;;;;;;0.10;0.10;;;24.90;57.10;;;;;;4187329;28;20597;-68
2022/08/02 11:44:08;;;;;;;0.00;0.00;;;25.00;57.20;;;;;;4187192;28;20511;-68
2022/08/02 11:46:30;;;;;;;0.00;0.00;;;25.00;57.20;;;;;;4188926;28;20060;-68
2022/08/02 11:48:53;;;;;;;0.00;0.00;;;25.00;57.20;;;;;;4186675;28;20117;-67
2022/08/02 11:51:18;;;;;;;1.08;1.08;;;25.00;57.20;;;;;;4187597;28;20173;-65
2022/08/02 11:53:46;;;;;;;0.00;0.00;;;25.00;57.40;;;;;;4191909;28;20056;-66
2022/08/02 11:56:09;;;;;;;0.10;0.10;;;25.00;57.50;;;;;;4191466;28;20083;-68
2022/08/02 11:58:31;;;;;;;0.00;0.00;;;25.10;57.40;;;;;;4191470;28;20106;-67
2022/08/02 12:00:54;;;;;;;0.00;0.00;;;25.10;57.30;;;;;;4192114;28;20056;-67
2022/08/02 12:03:16;;;;;;;0.00;0.00;;;25.10;57.10;;;;;;4168119;28;20053;-67
2022/08/02 12:05:49;;;;;;;0.30;0.30;;;25.10;57.10;;;;;;4174598;28;20072;-67
2022/08/02 12:08:13;;;;;;;0.43;0.43;;;25.10;57.10;;;;;;4171267;28;20103;-67
2022/08/02 12:10:35;;;;;;;0.00;0.00;;;25.10;57.10;;;;;;4165160;28;20045;-67
2022/08/02 12:12:59;;;;;;;0.10;0.10;;;25.10;57.10;;;;;;4173002;28;20098;-68
2022/08/02 12:15:36;;;;;;;0.00;0.00;;;25.20;57.20;;;;;;4191834;28;20151;-68
2022/08/02 12:20:38;;;;;;;0.00;0.00;;;25.20;57.20;;;;;;4165119;28;20044;-68
2022/08/02 12:23:04;;;;;;;0.05;0.05;;;25.20;57.40;;;;;;4191276;28;20052;-67
2022/08/02 12:25:26;;;;;;;0.00;0.00;;;25.20;57.40;;;;;;4190460;28;20492;-69
2022/08/02 12:28:16;;;;;;;0.30;0.30;;;25.20;57.50;;;;;;4190972;28;20052;-68
2022/08/02 12:30:50;;;;;;;0.00;0.00;;;25.20;57.60;;;;;;4190951;28;20491;-69
2022/08/02 12:33:13;;;;;;;0.05;0.05;;;25.20;57.80;;;;;;4190788;28;20056;-67
2022/08/02 12:35:35;;;;;;;0.00;0.00;;;25.20;57.90;;;;;;4189674;28;20052;-66
2022/08/02 12:37:57;;;;;;;0.35;0.35;;;25.20;58.00;;;;;;4187953;28;20071;-66
2022/08/02 12:40:26;;;;;;;0.00;0.00;;;25.20;58.10;;;;;;4190668;28;20184;-67
2022/08/02 12:42:48;;;;;;;0.00;0.00;;;25.20;58.20;;;;;;4191817;28;20134;-67
2022/08/02 12:45:11;;;;;;;0.00;0.00;;;25.20;58.40;;;;;;4190189;28;21016;-68
2022/08/02 12:47:45;;;;;;;0.00;0.00;;;25.30;58.50;;;;;;4190870;28;20041;-67
2022/08/02 12:50:11;;;;;;;0.10;0.10;;;25.30;58.50;;;;;;4189401;28;20056;-67